FYWE

Eros Airport

Windhoek, Namibia
METAR FYWE 231000Z 08007KT CAVOK 22/03 Q1029
Observed Flight Rules
May-23 @ 10:00 UTC (an hour ago) Visual Flight Rules
Wind Visibility Clouds
80° at 7 knots 10,000+ meters
  • Clear skies
Temperatures Readings
Current 22°C / 72°F
Dewpoint 3°C / 37°F
Humidity 29%
Altimeter 30.38" Hg
Pressure 1029 hPa
Elevation 1700
METAR FYWE 231000Z 08007KT CAVOK 22/03 Q1029
Observed Flight Rules
May-23 @ 10:00 UTC
(an hour ago)
VFR
Wind Visibility
80° at 7 knots 10,000+ meters
Clouds
  • Clear skies
Temperature Dewpoint
22°C / 72°F 3°C / 37°F
Humidity Altimeter Pressure
29% 30.38" Hg 1029 hPa